Terminal Aerodrome Forecast
Issued by NWS

Home | Current Version | Previous Version | Text Only | Print | Product List | Glossary On
Versions: 1 2 3 4 5 6 7 8 9 10 11 12 13 14
000
FTUS45 KPSR 231138
TAFSDL
TAF
KSDL 231138Z 2312/2412 36008KT P6SM -SHRA FEW030 BKN050 BKN070
     FM231500 26006KT P6SM VCSH SCT030 BKN060 BKN100
     FM232200 25012KT P6SM BKN060
     FM240200 VRB06KT P6SM FEW080
     FM240900 VRB03KT P6SM SKC=

USA.gov is the U.S. government's official web portal to all federal, state and local government web resources and services.